Time;durP1;ratioP1;P1;durP2;ratioP2;P2;SDS_P1;SDS_P2;PMS_P1;PMS_P2;Temp;Humidity;BMP_temperature;BMP_pressure;BME280_temperature;BME280_humidity;BME280_pressure;Samples;Min_cycle;Max_cycle;Signal;HPM_P1;HPM_P2
2023/09/20 00:01:52;;;;;;;7.45;2.63;;;;;;;;;;5036408;28;20105;-66
2023/09/20 00:04:17;;;;;;;5.18;2.35;;;;;;;;;;5036094;28;20023;-66
2023/09/20 00:06:42;;;;;;;5.80;2.38;;;;;;;;;;5036047;28;20021;-66
2023/09/20 00:09:08;;;;;;;7.20;2.20;;;;;;;;;;5036085;28;20028;-66
2023/09/20 00:11:33;;;;;;;7.18;2.60;;;;;;;;;;5036210;28;20466;-67
2023/09/20 00:13:59;;;;;;;5.05;2.28;;;;;;;;;;5035971;28;20037;-66
2023/09/20 00:16:24;;;;;;;7.37;2.87;;;;;;;;;;5035863;28;20021;-66
2023/09/20 00:18:49;;;;;;;4.72;2.05;;;;;;;;;;5036009;28;20017;-66
2023/09/20 00:21:14;;;;;;;8.87;3.43;;;;;;;;;;5035785;28;20027;-66
2023/09/20 00:23:40;;;;;;;4.80;2.60;;;;;;;;;;5035761;28;20022;-66
2023/09/20 00:26:05;;;;;;;3.10;2.10;;;;;;;;;;5035134;28;20022;-66
2023/09/20 00:28:30;;;;;;;4.37;2.43;;;;;;;;;;5035734;28;20242;-66
2023/09/20 00:30:56;;;;;;;12.68;2.35;;;;;;;;;;5035331;28;20021;-66
2023/09/20 00:33:21;;;;;;;8.57;2.33;;;;;;;;;;5035414;28;20393;-66
2023/09/20 00:35:46;;;;;;;8.55;2.40;;;;;;;;;;5035425;28;20325;-66
2023/09/20 00:38:16;;;;;;;9.57;2.67;;;;;;;;;;5035427;28;20028;-66
2023/09/20 00:40:41;;;;;;;5.18;2.25;;;;;;;;;;5035673;28;20633;-66
2023/09/20 00:43:07;;;;;;;5.10;2.63;;;;;;;;;;5035380;28;20097;-66
2023/09/20 00:45:33;;;;;;;3.65;2.28;;;;;;;;;;5035554;28;20470;-66
2023/09/20 00:47:59;;;;;;;7.65;2.53;;;;;;;;;;5035332;28;20041;-66
2023/09/20 00:50:27;;;;;;;6.70;2.25;;;;;;;;;;5035031;28;20017;-66
2023/09/20 00:52:54;;;;;;;6.40;2.75;;;;;;;;;;5035747;28;20477;-66
2023/09/20 00:55:21;;;;;;;5.05;2.35;;;;;;;;;;5034938;28;20022;-66
2023/09/20 00:57:47;;;;;;;6.55;2.15;;;;;;;;;;5035081;28;20376;-66
2023/09/20 01:00:23;;;;;;;5.00;2.17;;;;;;;;;;5035315;28;20096;-66
2023/09/20 01:02:49;;;;;;;7.28;2.20;;;;;;;;;;5035378;28;20040;-62
2023/09/20 01:05:15;;;;;;;7.15;2.40;;;;;;;;;;5034999;28;20489;-61
2023/09/20 01:07:42;;;;;;;6.00;2.22;;;;;;;;;;5035189;28;20018;-61
2023/09/20 01:10:08;;;;;;;9.02;2.53;;;;;;;;;;5035154;28;20096;-61
2023/09/20 01:12:33;;;;;;;4.57;2.10;;;;;;;;;;5035128;28;20139;-62
2023/09/20 01:14:58;;;;;;;5.45;2.13;;;;;;;;;;5034837;28;20033;-61
2023/09/20 01:17:23;;;;;;;4.33;2.13;;;;;;;;;;5034774;28;20029;-62
2023/09/20 01:19:49;;;;;;;4.97;2.30;;;;;;;;;;5034067;28;20270;-61
2023/09/20 01:22:15;;;;;;;4.13;2.10;;;;;;;;;;5034079;28;20420;-61
2023/09/20 01:24:40;;;;;;;4.47;1.83;;;;;;;;;;5034449;28;20021;-61
2023/09/20 01:27:06;;;;;;;7.22;2.28;;;;;;;;;;5033872;28;20528;-61
2023/09/20 01:29:33;;;;;;;7.80;2.40;;;;;;;;;;5034199;28;20461;-61
2023/09/20 01:32:02;;;;;;;4.88;2.33;;;;;;;;;;5033759;28;20057;-61
2023/09/20 01:34:27;;;;;;;5.30;2.58;;;;;;;;;;5034143;28;20057;-61
2023/09/20 01:36:52;;;;;;;6.43;2.20;;;;;;;;;;5033950;28;20036;-62
2023/09/20 01:39:18;;;;;;;4.53;2.00;;;;;;;;;;5033299;28;20422;-62
2023/09/20 01:41:46;;;;;;;7.13;2.37;;;;;;;;;;5033964;28;20040;-62
2023/09/20 01:44:11;;;;;;;5.88;2.30;;;;;;;;;;5033794;28;20255;-62
2023/09/20 01:46:36;;;;;;;5.97;1.83;;;;;;;;;;5033348;28;20009;-61
2023/09/20 01:49:05;;;;;;;5.97;2.38;;;;;;;;;;5033664;28;20444;-62
2023/09/20 01:51:30;;;;;;;7.15;2.65;;;;;;;;;;5033508;28;20025;-61
2023/09/20 01:53:55;;;;;;;6.95;2.50;;;;;;;;;;5033535;28;20036;-62
2023/09/20 01:56:21;;;;;;;9.67;2.50;;;;;;;;;;5033289;28;20444;-62
2023/09/20 01:58:48;;;;;;;5.32;2.58;;;;;;;;;;5033445;28;20033;-62
2023/09/20 02:01:13;;;;;;;8.38;2.53;;;;;;;;;;5033535;28;20021;-62
2023/09/20 02:03:40;;;;;;;8.57;2.30;;;;;;;;;;5033775;28;20028;-61
2023/09/20 02:06:06;;;;;;;5.10;2.28;;;;;;;;;;5033703;28;20323;-61
2023/09/20 02:08:31;;;;;;;5.38;2.33;;;;;;;;;;5033214;28;20013;-62
2023/09/20 02:10:57;;;;;;;3.80;2.10;;;;;;;;;;5033375;28;20466;-61
2023/09/20 02:13:22;;;;;;;4.93;2.50;;;;;;;;;;5033155;28;20104;-66
2023/09/20 02:15:47;;;;;;;8.70;2.20;;;;;;;;;;5033090;28;20445;-66
2023/09/20 02:18:12;;;;;;;7.77;2.20;;;;;;;;;;5033086;28;20104;-66
2023/09/20 02:20:37;;;;;;;7.07;2.77;;;;;;;;;;5033478;28;20273;-66
2023/09/20 02:23:04;;;;;;;4.60;2.17;;;;;;;;;;5032836;28;20026;-66
2023/09/20 02:25:29;;;;;;;7.07;2.85;;;;;;;;;;5033211;28;20258;-66
2023/09/20 02:27:57;;;;;;;4.38;2.20;;;;;;;;;;5032945;28;20032;-66
2023/09/20 02:30:28;;;;;;;8.55;2.83;;;;;;;;;;5032734;28;20029;-66
2023/09/20 02:32:57;;;;;;;9.45;2.47;;;;;;;;;;5032906;28;20046;-66
2023/09/20 02:35:23;;;;;;;6.25;2.35;;;;;;;;;;5032789;28;20057;-65
2023/09/20 02:37:48;;;;;;;9.48;2.60;;;;;;;;;;5032782;28;20064;-66
2023/09/20 02:40:14;;;;;;;8.75;2.47;;;;;;;;;;5032974;28;20021;-65
2023/09/20 02:42:44;;;;;;;10.65;2.50;;;;;;;;;;5032687;28;20052;-65
2023/09/20 02:45:10;;;;;;;6.15;2.53;;;;;;;;;;5032876;28;20030;-66
2023/09/20 02:47:35;;;;;;;5.15;2.08;;;;;;;;;;5015141;28;20027;-66
2023/09/20 02:50:01;;;;;;;7.97;2.60;;;;;;;;;;5032315;28;20025;-66
2023/09/20 02:52:26;;;;;;;5.20;2.08;;;;;;;;;;5032672;28;20427;-66
2023/09/20 02:54:51;;;;;;;11.60;2.50;;;;;;;;;;5032322;28;20075;-66
2023/09/20 02:57:16;;;;;;;5.40;2.30;;;;;;;;;;5014491;28;20424;-66
2023/09/20 02:59:42;;;;;;;5.13;2.07;;;;;;;;;;5032130;28;20022;-66
2023/09/20 03:02:08;;;;;;;4.97;2.15;;;;;;;;;;5032760;28;20290;-66
2023/09/20 03:04:34;;;;;;;7.38;2.92;;;;;;;;;;5032728;28;20025;-66
2023/09/20 03:07:01;;;;;;;5.63;2.40;;;;;;;;;;5032667;28;20021;-66
2023/09/20 03:09:27;;;;;;;9.63;2.78;;;;;;;;;;5032434;28;20033;-66
2023/09/20 03:11:55;;;;;;;8.63;2.60;;;;;;;;;;5032387;28;20038;-66
2023/09/20 03:14:23;;;;;;;5.40;2.45;;;;;;;;;;5032480;28;20053;-66
2023/09/20 03:16:48;;;;;;;6.38;2.53;;;;;;;;;;5032385;28;20065;-66
2023/09/20 03:19:14;;;;;;;6.80;2.73;;;;;;;;;;5032375;28;20061;-66
2023/09/20 03:21:41;;;;;;;4.38;2.10;;;;;;;;;;5032471;28;20104;-66
2023/09/20 03:24:07;;;;;;;7.88;2.67;;;;;;;;;;5032704;28;20095;-62
2023/09/20 03:26:35;;;;;;;11.88;2.45;;;;;;;;;;5031995;28;20045;-62
2023/09/20 03:29:03;;;;;;;6.82;2.60;;;;;;;;;;5032182;28;20030;-63
2023/09/20 03:31:31;;;;;;;9.55;2.35;;;;;;;;;;5031081;28;20062;-62
2023/09/20 03:33:56;;;;;;;6.22;2.65;;;;;;;;;;5032718;28;20112;-61
2023/09/20 03:36:22;;;;;;;5.68;2.10;;;;;;;;;;5032392;28;20049;-62
2023/09/20 03:38:48;;;;;;;7.85;2.00;;;;;;;;;;5032474;28;20033;-63
2023/09/20 03:41:13;;;;;;;5.50;2.30;;;;;;;;;;5032197;28;20018;-62
2023/09/20 03:43:40;;;;;;;6.93;2.25;;;;;;;;;;5032605;28;20251;-61
2023/09/20 03:46:05;;;;;;;5.47;2.50;;;;;;;;;;5032355;28;20548;-61
2023/09/20 03:48:33;;;;;;;6.20;2.20;;;;;;;;;;5032084;28;20084;-62
2023/09/20 03:50:58;;;;;;;8.10;3.35;;;;;;;;;;5032242;28;20266;-62
2023/09/20 03:53:25;;;;;;;5.70;2.40;;;;;;;;;;5032115;28;20029;-61
2023/09/20 03:55:50;;;;;;;12.63;2.55;;;;;;;;;;5032103;28;20294;-61
2023/09/20 03:58:16;;;;;;;4.95;2.30;;;;;;;;;;5032211;28;20064;-61
2023/09/20 04:00:44;;;;;;;9.38;2.47;;;;;;;;;;5032879;28;20021;-62
2023/09/20 04:03:11;;;;;;;12.48;2.58;;;;;;;;;;5035645;28;20025;-62
2023/09/20 04:05:39;;;;;;;9.98;2.40;;;;;;;;;;5035699;28;20035;-61
2023/09/20 04:08:08;;;;;;;7.22;2.38;;;;;;;;;;5035559;28;20021;-62
2023/09/20 04:10:34;;;;;;;5.13;2.42;;;;;;;;;;5035401;28;20460;-61
2023/09/20 04:12:59;;;;;;;6.40;2.67;;;;;;;;;;5035586;28;20018;-62
2023/09/20 04:15:25;;;;;;;7.30;2.47;;;;;;;;;;5035297;28;20377;-62
2023/09/20 04:17:51;;;;;;;5.28;2.40;;;;;;;;;;5035643;28;20147;-61
2023/09/20 04:20:20;;;;;;;10.15;2.97;;;;;;;;;;5035518;28;20105;-62
2023/09/20 04:22:45;;;;;;;6.15;3.17;;;;;;;;;;5035661;28;20413;-61
2023/09/20 04:25:11;;;;;;;10.50;3.45;;;;;;;;;;5035090;28;20017;-61
2023/09/20 04:27:36;;;;;;;10.38;3.20;;;;;;;;;;5035258;28;20029;-61
2023/09/20 04:30:01;;;;;;;8.63;3.13;;;;;;;;;;5035195;28;20539;-61
2023/09/20 04:32:26;;;;;;;11.45;3.10;;;;;;;;;;5035082;28;20128;-66
2023/09/20 04:34:51;;;;;;;5.93;3.17;;;;;;;;;;5035069;28;20478;-65
2023/09/20 04:37:17;;;;;;;14.53;3.37;;;;;;;;;;5035229;28;20018;-66
2023/09/20 04:39:42;;;;;;;10.23;3.25;;;;;;;;;;5034781;28;20021;-66
2023/09/20 04:42:10;;;;;;;6.60;2.60;;;;;;;;;;5035224;28;20057;-66
2023/09/20 04:44:35;;;;;;;6.03;2.75;;;;;;;;;;5034492;28;20112;-66
2023/09/20 04:47:00;;;;;;;4.27;2.47;;;;;;;;;;5034993;28;20088;-66
2023/09/20 04:49:25;;;;;;;8.33;3.30;;;;;;;;;;5035254;28;20337;-66
2023/09/20 04:51:51;;;;;;;9.10;2.90;;;;;;;;;;5035255;28;20017;-66
2023/09/20 04:54:19;;;;;;;7.32;3.42;;;;;;;;;;5035196;28;20025;-66
2023/09/20 04:56:47;;;;;;;5.45;3.33;;;;;;;;;;5035439;28;20030;-66
2023/09/20 04:59:14;;;;;;;13.43;3.42;;;;;;;;;;5035304;28;20500;-66
2023/09/20 05:01:39;;;;;;;9.57;3.05;;;;;;;;;;5035052;28;20048;-66
2023/09/20 05:04:06;;;;;;;10.07;3.35;;;;;;;;;;5034977;28;20022;-66
2023/09/20 05:06:31;;;;;;;11.23;3.15;;;;;;;;;;5034992;28;20017;-66
2023/09/20 05:08:56;;;;;;;9.77;2.92;;;;;;;;;;5034937;28;20096;-66
2023/09/20 05:11:22;;;;;;;9.55;3.08;;;;;;;;;;5034924;28;20028;-66
2023/09/20 05:13:47;;;;;;;14.80;3.47;;;;;;;;;;5035058;28;20030;-66
2023/09/20 05:16:13;;;;;;;8.97;3.47;;;;;;;;;;5034806;28;20057;-66
2023/09/20 05:18:38;;;;;;;7.03;2.90;;;;;;;;;;5034913;28;20040;-66
2023/09/20 05:21:03;;;;;;;7.22;3.78;;;;;;;;;;5034630;28;20262;-66
2023/09/20 05:23:29;;;;;;;10.40;3.30;;;;;;;;;;5034735;28;20024;-66
2023/09/20 05:25:54;;;;;;;8.35;3.10;;;;;;;;;;5034889;28;20235;-66
2023/09/20 05:28:20;;;;;;;8.82;3.20;;;;;;;;;;5034569;28;20496;-66
2023/09/20 05:30:46;;;;;;;9.18;3.00;;;;;;;;;;5034504;28;20032;-66
2023/09/20 05:33:14;;;;;;;7.45;3.08;;;;;;;;;;5034526;28;20033;-66
2023/09/20 05:35:40;;;;;;;7.63;2.75;;;;;;;;;;5034630;28;20033;-66
2023/09/20 05:38:08;;;;;;;5.43;2.75;;;;;;;;;;5034348;28;20382;-66
2023/09/20 05:40:33;;;;;;;7.70;2.40;;;;;;;;;;5034611;28;20025;-66
2023/09/20 05:42:59;;;;;;;6.35;2.72;;;;;;;;;;5034348;28;20469;-66
2023/09/20 05:45:26;;;;;;;10.85;2.88;;;;;;;;;;5034557;28;20026;-66
2023/09/20 05:47:51;;;;;;;6.13;2.97;;;;;;;;;;5034462;28;20027;-66
2023/09/20 05:50:16;;;;;;;9.10;3.30;;;;;;;;;;5034215;28;20096;-66
2023/09/20 05:52:43;;;;;;;10.50;3.22;;;;;;;;;;5034083;28;20495;-66
2023/09/20 05:55:11;;;;;;;10.18;3.10;;;;;;;;;;5034316;28;20017;-66
2023/09/20 05:57:36;;;;;;;9.45;2.60;;;;;;;;;;5033995;28;20067;-66
2023/09/20 06:00:17;;;;;;;9.10;2.88;;;;;;;;;;5033999;28;20021;-66
2023/09/20 06:02:43;;;;;;;5.80;2.33;;;;;;;;;;5034172;28;20023;-66
2023/09/20 06:05:09;;;;;;;5.15;2.40;;;;;;;;;;5034155;28;20107;-66
2023/09/20 06:07:35;;;;;;;9.82;2.60;;;;;;;;;;5033799;28;20021;-66
2023/09/20 06:10:03;;;;;;;9.80;2.67;;;;;;;;;;5034064;28;20105;-66
2023/09/20 06:12:29;;;;;;;8.05;2.28;;;;;;;;;;5034037;28;20029;-66
2023/09/20 06:14:54;;;;;;;5.60;2.10;;;;;;;;;;5033707;28;20067;-66
2023/09/20 06:17:19;;;;;;;7.47;2.35;;;;;;;;;;5033696;28;20029;-66
2023/09/20 06:19:46;;;;;;;5.37;2.00;;;;;;;;;;5033575;28;20529;-66
2023/09/20 06:22:13;;;;;;;5.72;2.00;;;;;;;;;;5033858;28;20083;-66
2023/09/20 06:24:39;;;;;;;7.43;2.03;;;;;;;;;;5033365;28;20042;-66
2023/09/20 06:27:05;;;;;;;3.35;1.50;;;;;;;;;;5033816;28;20013;-66
2023/09/20 06:29:30;;;;;;;9.67;2.50;;;;;;;;;;5033466;28;20473;-66
2023/09/20 06:31:56;;;;;;;6.13;2.23;;;;;;;;;;5033448;28;20049;-66
2023/09/20 06:34:24;;;;;;;5.27;2.30;;;;;;;;;;5033420;28;20235;-66
2023/09/20 06:36:49;;;;;;;8.75;2.13;;;;;;;;;;5033351;28;20030;-66
2023/09/20 06:39:18;;;;;;;4.60;1.50;;;;;;;;;;5033375;28;20025;-66
2023/09/20 06:41:44;;;;;;;4.97;2.22;;;;;;;;;;5033316;28;20022;-66
2023/09/20 06:44:11;;;;;;;9.52;1.98;;;;;;;;;;5033556;28;20438;-66
2023/09/20 06:46:36;;;;;;;6.95;2.20;;;;;;;;;;5033502;28;20025;-66
2023/09/20 06:49:02;;;;;;;6.78;2.15;;;;;;;;;;5033605;28;20108;-66
2023/09/20 06:51:27;;;;;;;4.90;1.95;;;;;;;;;;5033512;28;20021;-66
2023/09/20 06:53:52;;;;;;;8.43;1.70;;;;;;;;;;5033296;28;20022;-66
2023/09/20 06:56:17;;;;;;;5.80;1.73;;;;;;;;;;5033150;28;20249;-66
2023/09/20 06:58:45;;;;;;;5.00;1.97;;;;;;;;;;5033318;28;20282;-66
2023/09/20 07:01:10;;;;;;;5.68;1.80;;;;;;;;;;5033375;28;20262;-66
2023/09/20 07:03:35;;;;;;;7.82;2.20;;;;;;;;;;5033163;28;20013;-65
2023/09/20 07:06:02;;;;;;;5.40;2.03;;;;;;;;;;5033156;28;20545;-65
2023/09/20 07:08:34;;;;;;;4.80;1.80;;;;;;;;;;5033327;28;20105;-65
2023/09/20 07:10:59;;;;;;;4.63;2.08;;;;;;;;;;5033022;28;20025;-66
2023/09/20 07:13:26;;;;;;;6.35;2.25;;;;;;;;;;5033137;28;20029;-66
2023/09/20 07:15:54;;;;;;;4.30;1.70;;;;;;;;;;5033284;28;20045;-66
2023/09/20 07:18:20;;;;;;;4.65;1.77;;;;;;;;;;5032870;28;20048;-66
2023/09/20 07:20:45;;;;;;;2.25;1.55;;;;;;;;;;5032991;28;20017;-66
2023/09/20 07:23:11;;;;;;;6.57;1.50;;;;;;;;;;5032996;28;20032;-66
2023/09/20 07:25:37;;;;;;;3.67;1.48;;;;;;;;;;5032953;28;20274;-66
2023/09/20 07:28:06;;;;;;;5.07;1.88;;;;;;;;;;5032930;28;20062;-66
2023/09/20 07:30:34;;;;;;;3.03;1.58;;;;;;;;;;5033047;28;20051;-66
2023/09/20 07:33:02;;;;;;;5.82;1.73;;;;;;;;;;5032692;28;20046;-66
2023/09/20 07:35:28;;;;;;;3.30;1.55;;;;;;;;;;5033170;28;20057;-66
2023/09/20 07:37:57;;;;;;;5.70;1.98;;;;;;;;;;5036885;28;20072;-66
2023/09/20 07:40:28;;;;;;;7.57;2.25;;;;;;;;;;5036608;28;20413;-66
2023/09/20 07:42:58;;;;;;;4.18;1.73;;;;;;;;;;5036820;28;20156;-66
2023/09/20 07:45:24;;;;;;;6.32;1.83;;;;;;;;;;5036762;28;20091;-66
2023/09/20 07:47:49;;;;;;;9.30;2.00;;;;;;;;;;5036461;28;20517;-66
2023/09/20 07:50:14;;;;;;;5.97;1.80;;;;;;;;;;5036470;28;20021;-66
2023/09/20 07:52:40;;;;;;;5.25;1.60;;;;;;;;;;5036675;28;20477;-66
2023/09/20 07:55:06;;;;;;;4.43;1.80;;;;;;;;;;5036535;28;20482;-66
2023/09/20 07:57:32;;;;;;;6.32;1.80;;;;;;;;;;5036548;28;20021;-66
2023/09/20 07:59:59;;;;;;;3.78;1.73;;;;;;;;;;5036448;28;20087;-66
2023/09/20 08:02:25;;;;;;;5.22;2.03;;;;;;;;;;5036228;28;20079;-63
2023/09/20 08:04:50;;;;;;;7.15;1.90;;;;;;;;;;5036402;28;20026;-66
2023/09/20 08:07:15;;;;;;;3.93;1.77;;;;;;;;;;5036128;28;20413;-66
2023/09/20 08:09:40;;;;;;;6.17;2.07;;;;;;;;;;5036102;28;20108;-66
2023/09/20 08:12:08;;;;;;;5.37;2.37;;;;;;;;;;5036325;28;20021;-66
2023/09/20 08:14:33;;;;;;;4.97;1.60;;;;;;;;;;5036212;28;20251;-66
2023/09/20 08:19:43;;;;;;;4.55;1.67;;;;;;;;;;5035835;28;20108;-66
2023/09/20 08:22:10;;;;;;;8.82;1.80;;;;;;;;;;5036102;28;20049;-66
2023/09/20 09:00:24;;;;;;;10.43;1.50;;;;;;;;;;5035122;28;20031;-66
2023/09/20 09:02:53;;;;;;;7.03;1.50;;;;;;;;;;5035042;28;20080;-66
2023/09/20 09:05:20;;;;;;;4.45;1.23;;;;;;;;;;5035005;28;20056;-66
2023/09/20 09:07:46;;;;;;;4.72;1.30;;;;;;;;;;5035270;28;20071;-66
2023/09/20 09:10:13;;;;;;;4.53;1.48;;;;;;;;;;5034938;28;20432;-66
2023/09/20 09:12:38;;;;;;;5.18;1.20;;;;;;;;;;5035235;28;20393;-66
2023/09/20 09:15:07;;;;;;;3.27;1.20;;;;;;;;;;5034899;28;20023;-66
2023/09/20 09:17:37;;;;;;;2.85;0.93;;;;;;;;;;5034728;28;20026;-66
2023/09/20 09:20:05;;;;;;;3.90;1.40;;;;;;;;;;5034695;28;20393;-66
2023/09/20 09:22:33;;;;;;;4.05;1.40;;;;;;;;;;5034829;28;20052;-66
2023/09/20 09:24:59;;;;;;;4.45;1.63;;;;;;;;;;5034619;28;20025;-66
2023/09/20 09:27:24;;;;;;;5.75;1.50;;;;;;;;;;5034652;28;20028;-66
2023/09/20 09:29:49;;;;;;;4.37;1.40;;;;;;;;;;5034762;28;20017;-66
2023/09/20 09:32:14;;;;;;;4.17;1.27;;;;;;;;;;5034380;28;20136;-66
2023/09/20 09:34:41;;;;;;;3.45;1.52;;;;;;;;;;5034707;28;20100;-66
2023/09/20 09:37:07;;;;;;;2.78;1.20;;;;;;;;;;5034686;28;20384;-66
2023/09/20 09:39:33;;;;;;;2.38;1.30;;;;;;;;;;5034319;28;20092;-66
2023/09/20 09:42:00;;;;;;;3.53;1.40;;;;;;;;;;5034566;28;20018;-66
2023/09/20 09:44:25;;;;;;;3.50;1.17;;;;;;;;;;5034236;28;20021;-66
2023/09/20 09:46:50;;;;;;;5.70;1.65;;;;;;;;;;5034195;28;20022;-66
2023/09/20 09:49:18;;;;;;;3.00;1.42;;;;;;;;;;5034189;28;20096;-66
2023/09/20 09:51:50;;;;;;;4.20;1.40;;;;;;;;;;5034417;28;20025;-66
2023/09/20 09:54:16;;;;;;;5.18;1.63;;;;;;;;;;5034408;28;20474;-66
2023/09/20 09:56:41;;;;;;;2.00;1.05;;;;;;;;;;5034095;28;20083;-66
2023/09/20 09:59:07;;;;;;;3.25;1.40;;;;;;;;;;5033192;28;20453;-67
2023/09/20 10:01:36;;;;;;;2.58;1.10;;;;;;;;;;5034201;28;20025;-66
2023/09/20 10:04:05;;;;;;;2.97;1.35;;;;;;;;;;5034261;28;20419;-66
2023/09/20 10:06:33;;;;;;;2.83;1.10;;;;;;;;;;5034094;28;20017;-67
2023/09/20 10:09:00;;;;;;;2.75;1.33;;;;;;;;;;5033919;28;20032;-67
2023/09/20 10:11:25;;;;;;;6.90;1.73;;;;;;;;;;5033877;28;20021;-66
2023/09/20 10:13:51;;;;;;;3.35;1.23;;;;;;;;;;5033765;28;20017;-67
2023/09/20 10:16:16;;;;;;;7.05;1.45;;;;;;;;;;5033797;28;20382;-67
2023/09/20 10:18:49;;;;;;;5.90;1.50;;;;;;;;;;5033644;28;20021;-67
2023/09/20 10:21:16;;;;;;;3.28;1.25;;;;;;;;;;5033920;28;20101;-66
2023/09/20 10:23:42;;;;;;;4.03;1.35;;;;;;;;;;5033935;28;20489;-67
2023/09/20 10:26:14;;;;;;;5.20;1.40;;;;;;;;;;5033885;28;20127;-67
2023/09/20 10:28:40;;;;;;;6.78;1.23;;;;;;;;;;5033522;28;20036;-66
2023/09/20 10:31:05;;;;;;;3.38;1.35;;;;;;;;;;5033582;28;20049;-66
2023/09/20 10:33:43;;;;;;;3.05;1.23;;;;;;;;;;5033478;28;20025;-67
2023/09/20 10:36:10;;;;;;;3.83;1.38;;;;;;;;;;5033696;28;20060;-67
2023/09/20 10:38:35;;;;;;;7.47;1.20;;;;;;;;;;5033305;28;20052;-67
2023/09/20 10:41:07;;;;;;;4.27;1.60;;;;;;;;;;5033435;28;20013;-67
2023/09/20 10:43:32;;;;;;;;;;;;;;;;;;5034019;28;20029;-67
2023/09/20 10:46:00;;;;;;;3.00;1.20;;;;;;;;;;5033595;28;19912;-67
2023/09/20 10:48:28;;;;;;;4.53;1.38;;;;;;;;;;5033565;28;20075;-67
2023/09/20 10:50:57;;;;;;;4.57;1.48;;;;;;;;;;5033245;28;20026;-67
2023/09/20 10:53:43;;;;;;;6.65;1.40;;;;;;;;;;5033211;28;20147;-67
2023/09/20 10:56:09;;;;;;;4.70;1.20;;;;;;;;;;5033068;28;20022;-67
2023/09/20 10:58:36;;;;;;;3.22;1.30;;;;;;;;;;5033147;28;20071;-67
2023/09/20 11:01:03;;;;;;;4.72;1.60;;;;;;;;;;5033417;28;20025;-67
2023/09/20 11:03:29;;;;;;;4.20;1.40;;;;;;;;;;5033413;28;20473;-67
2023/09/20 11:05:55;;;;;;;3.72;1.02;;;;;;;;;;5033319;28;20103;-67
2023/09/20 11:08:21;;;;;;;3.53;1.40;;;;;;;;;;5033082;28;20493;-67
2023/09/20 11:10:47;;;;;;;3.13;1.30;;;;;;;;;;5035406;28;20059;-67
2023/09/20 11:13:14;;;;;;;3.85;1.55;;;;;;;;;;5037400;28;20412;-67
2023/09/20 11:15:43;;;;;;;3.47;1.33;;;;;;;;;;5037002;28;20100;-66
2023/09/20 11:18:08;;;;;;;4.07;1.40;;;;;;;;;;5036939;28;20118;-66
2023/09/20 11:20:37;;;;;;;2.27;1.20;;;;;;;;;;5037090;28;20074;-67
2023/09/20 11:23:02;;;;;;;4.45;1.60;;;;;;;;;;5037186;28;20234;-66
2023/09/20 11:25:30;;;;;;;5.22;1.40;;;;;;;;;;5036817;28;20469;-67
2023/09/20 11:27:56;;;;;;;3.22;1.50;;;;;;;;;;5037148;28;20014;-67
2023/09/20 11:30:25;;;;;;;3.25;1.75;;;;;;;;;;5036643;28;20017;-67
2023/09/20 11:32:50;;;;;;;5.28;1.50;;;;;;;;;;5036665;28;20130;-63
2023/09/20 11:35:32;;;;;;;2.90;1.00;;;;;;;;;;5036748;28;20104;-63
2023/09/20 11:37:57;;;;;;;4.63;1.30;;;;;;;;;;5036932;28;20025;-62
2023/09/20 11:40:22;;;;;;;2.65;1.27;;;;;;;;;;5036580;28;20362;-62
2023/09/20 11:42:48;;;;;;;4.30;1.70;;;;;;;;;;5036619;28;20029;-63
2023/09/20 11:45:16;;;;;;;6.50;1.50;;;;;;;;;;5036593;28;20033;-62
2023/09/20 11:47:42;;;;;;;4.20;1.58;;;;;;;;;;5036750;28;20472;-62
2023/09/20 11:50:12;;;;;;;3.22;1.13;;;;;;;;;;5036748;28;20540;-62
2023/09/20 11:52:38;;;;;;;4.35;1.35;;;;;;;;;;5036644;28;20481;-62
2023/09/20 11:55:04;;;;;;;3.72;1.48;;;;;;;;;;5036625;28;20022;-63
2023/09/20 11:57:29;;;;;;;3.30;1.38;;;;;;;;;;5036693;28;20022;-63
2023/09/20 11:59:55;;;;;;;6.37;1.60;;;;;;;;;;5036487;28;20465;-63
2023/09/20 12:02:20;;;;;;;3.05;1.30;;;;;;;;;;5036180;28;20025;-62
2023/09/20 12:04:52;;;;;;;2.67;1.40;;;;;;;;;;5036504;28;20026;-62
2023/09/20 12:07:17;;;;;;;;;;;;;;;;;;5036470;28;20247;-62
2023/09/20 12:09:43;;;;;;;4.63;1.77;;;;;;;;;;5036110;28;19952;-62
2023/09/20 12:12:10;;;;;;;2.42;1.30;;;;;;;;;;5036097;28;20029;-63
2023/09/20 12:14:37;;;;;;;3.28;1.67;;;;;;;;;;5035992;28;20033;-62
2023/09/20 12:17:04;;;;;;;4.05;1.60;;;;;;;;;;5036231;28;20029;-62
2023/09/20 12:19:29;;;;;;;3.63;1.40;;;;;;;;;;5036121;28;20070;-62
2023/09/20 12:21:55;;;;;;;3.05;1.50;;;;;;;;;;5035029;28;20100;-62
2023/09/20 12:24:22;;;;;;;2.85;1.42;;;;;;;;;;5035835;28;20016;-62
2023/09/20 12:26:48;;;;;;;4.82;1.48;;;;;;;;;;5035814;28;20013;-62
2023/09/20 12:29:14;;;;;;;6.10;2.47;;;;;;;;;;5035695;28;20025;-62
2023/09/20 12:31:39;;;;;;;4.30;1.52;;;;;;;;;;5035586;28;20051;-62
2023/09/20 12:34:04;;;;;;;5.93;2.03;;;;;;;;;;5035739;28;20048;-62
2023/09/20 12:36:30;;;;;;;3.13;1.50;;;;;;;;;;5035696;28;20373;-62
2023/09/20 12:38:55;;;;;;;3.67;1.50;;;;;;;;;;5035483;28;20022;-62
2023/09/20 12:41:21;;;;;;;4.65;1.90;;;;;;;;;;5035762;28;20021;-62
2023/09/20 12:43:46;;;;;;;3.33;1.90;;;;;;;;;;5035583;28;20032;-62
2023/09/20 12:46:12;;;;;;;4.20;1.70;;;;;;;;;;5035373;28;20060;-62
2023/09/20 12:48:37;;;;;;;4.63;1.55;;;;;;;;;;5035693;28;20095;-62
2023/09/20 12:51:04;;;;;;;6.10;1.93;;;;;;;;;;5035609;28;20040;-62
2023/09/20 12:53:31;;;;;;;3.92;1.48;;;;;;;;;;5035552;28;20349;-62
2023/09/20 12:55:56;;;;;;;4.65;1.90;;;;;;;;;;5035513;28;20029;-62
2023/09/20 12:58:21;;;;;;;2.28;1.42;;;;;;;;;;5035134;28;20021;-62
2023/09/20 13:00:49;;;;;;;3.67;1.70;;;;;;;;;;5035136;28;20020;-62
2023/09/20 13:03:15;;;;;;;2.50;1.38;;;;;;;;;;5035095;28;20021;-62
2023/09/20 13:05:40;;;;;;;4.20;1.80;;;;;;;;;;5035151;28;20021;-62
2023/09/20 13:08:06;;;;;;;4.83;1.50;;;;;;;;;;5035012;28;20021;-62
2023/09/20 13:10:33;;;;;;;2.70;1.50;;;;;;;;;;5035242;28;20026;-62
2023/09/20 13:12:58;;;;;;;2.00;1.50;;;;;;;;;;5035194;28;20067;-62
2023/09/20 13:15:24;;;;;;;2.83;1.50;;;;;;;;;;5034877;28;20469;-62
2023/09/20 13:17:51;;;;;;;4.37;1.67;;;;;;;;;;5034917;28;20413;-62
2023/09/20 13:20:18;;;;;;;3.95;1.50;;;;;;;;;;5034961;28;20539;-62
2023/09/20 13:22:45;;;;;;;2.47;1.40;;;;;;;;;;5035014;28;20076;-62
2023/09/20 13:25:19;;;;;;;7.25;1.70;;;;;;;;;;5034952;28;20018;-62
2023/09/20 13:27:45;;;;;;;2.55;1.50;;;;;;;;;;5034617;28;20025;-62
2023/09/20 13:30:11;;;;;;;6.40;1.67;;;;;;;;;;5034501;28;20036;-62
2023/09/20 13:32:37;;;;;;;9.23;1.90;;;;;;;;;;5034447;28;20052;-62
2023/09/20 13:35:03;;;;;;;2.20;1.35;;;;;;;;;;5034428;28;20022;-62
2023/09/20 13:37:28;;;;;;;4.13;1.70;;;;;;;;;;5034699;28;20044;-62
2023/09/20 13:39:54;;;;;;;3.45;1.50;;;;;;;;;;5034328;28;20385;-62
2023/09/20 13:42:20;;;;;;;4.72;1.60;;;;;;;;;;5034646;28;20056;-62
2023/09/20 13:44:47;;;;;;;3.47;1.77;;;;;;;;;;5034322;28;20013;-62
2023/09/20 13:47:13;;;;;;;5.13;1.92;;;;;;;;;;5034507;28;20029;-62
2023/09/20 13:49:39;;;;;;;6.50;1.73;;;;;;;;;;5034490;28;20431;-62
2023/09/20 13:52:06;;;;;;;3.40;1.60;;;;;;;;;;5034417;28;20505;-62
2023/09/20 13:54:32;;;;;;;3.35;1.58;;;;;;;;;;5034480;28;20029;-67
2023/09/20 13:56:57;;;;;;;3.10;1.25;;;;;;;;;;5034183;28;20431;-67
2023/09/20 13:59:24;;;;;;;4.28;1.67;;;;;;;;;;5034032;28;20100;-67
2023/09/20 14:01:50;;;;;;;2.70;1.40;;;;;;;;;;5033964;28;20022;-67
2023/09/20 14:04:15;;;;;;;3.15;1.55;;;;;;;;;;5034266;28;20021;-67
2023/09/20 14:06:41;;;;;;;6.03;1.50;;;;;;;;;;5034174;28;20421;-66
2023/09/20 14:09:12;;;;;;;6.95;1.75;;;;;;;;;;5034104;28;20358;-67
2023/09/20 14:11:38;;;;;;;3.70;1.55;;;;;;;;;;5034102;28;20100;-67
2023/09/20 14:14:04;;;;;;;2.43;1.37;;;;;;;;;;5033860;28;20541;-67
2023/09/20 14:16:30;;;;;;;4.40;1.45;;;;;;;;;;5034026;28;20250;-66
2023/09/20 14:18:55;;;;;;;4.77;1.70;;;;;;;;;;5033712;28;20021;-67
2023/09/20 14:21:21;;;;;;;3.13;1.80;;;;;;;;;;5033681;28;20013;-67
2023/09/20 14:23:47;;;;;;;2.53;1.63;;;;;;;;;;5033610;28;20028;-67
2023/09/20 14:26:12;;;;;;;4.68;2.00;;;;;;;;;;5033827;28;20093;-66
2023/09/20 14:28:37;;;;;;;3.70;1.63;;;;;;;;;;5033653;28;20021;-67
2023/09/20 14:31:04;;;;;;;3.63;1.70;;;;;;;;;;5015574;28;20033;-67
2023/09/20 14:33:29;;;;;;;4.60;1.77;;;;;;;;;;5033429;28;20045;-67
2023/09/20 14:35:57;;;;;;;3.73;1.90;;;;;;;;;;5033779;28;20025;-67
2023/09/20 14:38:24;;;;;;;4.43;1.45;;;;;;;;;;5033353;28;20029;-67
2023/09/20 14:40:51;;;;;;;4.75;2.28;;;;;;;;;;5032649;28;20140;-66
2023/09/20 14:43:16;;;;;;;3.85;1.70;;;;;;;;;;5033458;28;20473;-66
2023/09/20 14:45:42;;;;;;;4.03;1.70;;;;;;;;;;5033181;28;20024;-67
2023/09/20 14:48:10;;;;;;;4.00;1.57;;;;;;;;;;5033318;28;20428;-67
2023/09/20 14:50:37;;;;;;;4.20;2.00;;;;;;;;;;5032491;28;20026;-67
2023/09/20 14:53:04;;;;;;;4.18;1.60;;;;;;;;;;5033224;28;20029;-67
2023/09/20 14:55:30;;;;;;;5.28;1.70;;;;;;;;;;5033502;28;20017;-67
2023/09/20 14:57:55;;;;;;;2.90;1.52;;;;;;;;;;5033356;28;20028;-67
2023/09/20 15:00:24;;;;;;;4.95;1.50;;;;;;;;;;5032111;28;20068;-66
2023/09/20 15:02:51;;;;;;;3.15;1.45;;;;;;;;;;5032933;28;20025;-62
2023/09/20 15:05:19;;;;;;;5.28;2.33;;;;;;;;;;5033126;28;20013;-62
2023/09/20 15:07:45;;;;;;;2.70;1.33;;;;;;;;;;5033154;28;20104;-62
2023/09/20 15:10:11;;;;;;;3.22;1.67;;;;;;;;;;5033124;28;20422;-63
2023/09/20 15:12:40;;;;;;;4.18;1.35;;;;;;;;;;5033071;28;20101;-62
2023/09/20 15:15:05;;;;;;;1.95;1.30;;;;;;;;;;5032376;28;20382;-62
2023/09/20 15:17:31;;;;;;;2.72;1.30;;;;;;;;;;5032782;28;20021;-62